Terminal Aerodrome Forecast
Issued by NWS

Home | Current Version | Previous Version | Text Only | Print | Product List | Glossary On
Versions: 1 2 3 4 5 6 7 8 9 10 11 12 13 14 15 16 17 18 19
000
FTUS43 KGLD 241141 AAB
TAFMCK
TAF AMD
KMCK 241141Z 2412/2512 08004KT 3SM BR FEW002
      TEMPO 2412/2414 1/2SM FG
     FM241400 18007KT P6SM SKC
     FM241800 19013G22KT P6SM SKC
     FM250200 16011KT P6SM SKC
     FM250700 18007KT P6SM FEW200 WS020/19040KT=

USA.gov is the U.S. government's official web portal to all federal, state and local government web resources and services.